createdAt,value
2024-01-05T00:01:44.742Z,4.50
2024-01-05T00:04:11.263Z,3.97
2024-01-05T00:06:39.193Z,2.42
2024-01-05T00:09:06.025Z,2.20
2024-01-05T00:11:32.641Z,3.95
2024-01-05T00:13:59.160Z,2.88
2024-01-05T00:16:25.841Z,3.38
2024-01-05T00:18:52.559Z,5.18
2024-01-05T00:21:23.334Z,4.13
2024-01-05T00:23:51.361Z,4.97
2024-01-05T00:26:18.249Z,5.22
2024-01-05T00:28:45.504Z,3.50
2024-01-05T00:31:12.476Z,4.00
2024-01-05T00:33:39.841Z,1.85
2024-01-05T00:36:07.404Z,2.20
2024-01-05T00:38:34.261Z,3.92
2024-01-05T00:41:00.911Z,1.50
2024-01-05T00:43:27.471Z,4.40
2024-01-05T00:45:54.944Z,2.08
2024-01-05T00:48:21.614Z,3.05
2024-01-05T00:50:48.239Z,4.00
2024-01-05T00:53:14.967Z,2.35
2024-01-05T00:55:41.552Z,2.72
2024-01-05T00:58:08.163Z,1.80
2024-01-05T01:00:34.760Z,2.85
2024-01-05T01:03:01.638Z,3.47
2024-01-05T01:05:28.274Z,2.30
2024-01-05T01:07:54.841Z,2.45
2024-01-05T01:10:21.323Z,3.08
2024-01-05T01:12:47.881Z,1.42
2024-01-05T01:15:14.505Z,1.98
2024-01-05T01:17:41.153Z,6.10
2024-01-05T01:20:08.051Z,3.38
2024-01-05T01:22:34.607Z,2.33
2024-01-05T01:25:01.219Z,2.70
2024-01-05T01:27:27.892Z,1.52
2024-01-05T01:29:54.521Z,2.20
2024-01-05T01:32:21.071Z,2.03
2024-01-05T01:34:47.678Z,4.80
2024-01-05T01:37:14.211Z,2.75
2024-01-05T01:39:40.757Z,3.13
2024-01-05T01:42:07.400Z,4.13
2024-01-05T01:44:34.080Z,4.10
2024-01-05T01:47:00.638Z,3.75
2024-01-05T01:49:27.429Z,1.38
2024-01-05T01:51:54.581Z,1.77
2024-01-05T01:54:21.675Z,2.13
2024-01-05T01:56:49.741Z,2.60
2024-01-05T01:59:16.486Z,2.72
2024-01-05T02:01:43.802Z,3.38
2024-01-05T02:04:16.225Z,2.08
2024-01-05T02:06:46.294Z,5.38
2024-01-05T02:09:13.408Z,1.70
2024-01-05T02:11:42.635Z,2.53
2024-01-05T02:14:09.332Z,1.80
2024-01-05T02:16:35.860Z,1.50
2024-01-05T02:19:02.851Z,2.00
2024-01-05T02:21:34.893Z,2.17
2024-01-05T02:24:01.645Z,4.50
2024-01-05T02:26:28.504Z,3.80
2024-01-05T02:28:55.094Z,2.67
2024-01-05T02:31:21.730Z,3.55
2024-01-05T02:33:48.484Z,3.65
2024-01-05T02:36:15.235Z,4.55
2024-01-05T02:38:41.788Z,1.00
2024-01-05T02:41:08.968Z,2.95
2024-01-05T02:43:35.498Z,2.08
2024-01-05T02:46:02.112Z,6.43
2024-01-05T02:48:28.759Z,3.42
2024-01-05T02:50:55.474Z,0.90
2024-01-05T02:53:22.128Z,0.73
2024-01-05T02:55:48.713Z,2.20
2024-01-05T02:58:15.201Z,3.40
2024-01-05T03:00:41.908Z,3.47
2024-01-05T03:03:08.735Z,1.60
2024-01-05T03:05:35.413Z,1.27
2024-01-05T03:08:01.983Z,1.33
2024-01-05T03:10:28.530Z,1.35
2024-01-05T03:12:55.047Z,1.45
2024-01-05T03:15:21.683Z,1.33
2024-01-05T03:17:49.504Z,3.08
2024-01-05T03:20:18.845Z,2.88
2024-01-05T03:22:45.589Z,2.72
2024-01-05T03:25:12.093Z,1.75
2024-01-05T03:27:38.684Z,0.85
2024-01-05T03:30:05.729Z,1.23
2024-01-05T03:32:32.458Z,2.03
2024-01-05T03:34:59.073Z,2.97
2024-01-05T03:37:25.710Z,0.88
2024-01-05T03:39:52.289Z,3.17
2024-01-05T03:42:19.420Z,1.00
2024-01-05T03:44:46.102Z,3.63
2024-01-05T03:47:12.621Z,4.38
2024-01-05T03:49:39.324Z,2.42
2024-01-05T03:52:06.022Z,3.75
2024-01-05T03:54:32.682Z,1.30
2024-01-05T03:56:59.278Z,2.00
2024-01-05T03:59:25.867Z,3.33
2024-01-05T04:01:52.462Z,2.35
2024-01-05T04:04:19.369Z,3.40
2024-01-05T04:06:47.075Z,1.73
2024-01-05T04:09:13.993Z,2.47
2024-01-05T04:11:40.940Z,3.03
2024-01-05T04:14:08.107Z,4.85
2024-01-05T04:16:34.895Z,1.55
2024-01-05T04:19:02.366Z,2.55
2024-01-05T04:21:29.090Z,2.05
2024-01-05T04:23:56.882Z,4.78
2024-01-05T04:26:23.718Z,3.40
2024-01-05T04:28:50.288Z,2.47
2024-01-05T04:31:17.062Z,3.25
2024-01-05T04:33:44.215Z,1.92
2024-01-05T04:36:11.613Z,2.65
2024-01-05T04:38:38.263Z,4.55
2024-01-05T04:41:04.837Z,1.70
2024-01-05T04:43:31.429Z,1.80
2024-01-05T04:45:57.998Z,4.57
2024-01-05T04:48:24.775Z,2.08
2024-01-05T04:50:52.375Z,2.20
2024-01-05T04:53:18.925Z,1.58
2024-01-05T04:55:45.480Z,1.25
2024-01-05T04:58:12.073Z,3.55
2024-01-05T05:00:38.667Z,2.03
2024-01-05T05:03:06.402Z,3.97
2024-01-05T05:05:33.029Z,2.13
2024-01-05T05:07:59.611Z,2.72
2024-01-05T05:10:26.486Z,1.95
2024-01-05T05:12:53.059Z,3.67
2024-01-05T05:15:19.715Z,1.90
2024-01-05T05:17:46.453Z,2.75
2024-01-05T05:20:13.913Z,3.30
2024-01-05T05:22:40.566Z,2.65
2024-01-05T05:25:07.944Z,4.47
2024-01-05T05:27:34.889Z,4.80
2024-01-05T05:30:05.537Z,3.60
2024-01-05T05:32:32.218Z,5.65
2024-01-05T05:34:59.331Z,2.90
2024-01-05T05:37:25.909Z,3.25
2024-01-05T05:39:52.453Z,6.25
2024-01-05T05:42:19.121Z,5.15
2024-01-05T05:44:45.715Z,3.67
2024-01-05T05:47:12.228Z,4.82
2024-01-05T05:49:39.242Z,2.60
2024-01-05T05:52:06.751Z,11.43
2024-01-05T05:54:33.505Z,3.42
2024-01-05T05:57:00.053Z,4.25
2024-01-05T05:59:26.629Z,2.35
2024-01-05T06:01:53.151Z,3.28
2024-01-05T06:04:19.909Z,3.40
2024-01-05T06:06:47.452Z,4.75
2024-01-05T06:09:16.106Z,3.45
2024-01-05T06:11:43.034Z,4.20
2024-01-05T06:14:09.713Z,2.40
2024-01-05T06:16:36.258Z,2.67
2024-01-05T06:19:03.193Z,3.13
2024-01-05T06:21:29.860Z,2.63
2024-01-05T06:23:56.611Z,3.03
2024-01-05T06:26:23.226Z,2.28
2024-01-05T06:28:49.804Z,7.85
2024-01-05T06:31:16.439Z,3.67
2024-01-05T06:33:44.075Z,5.28
2024-01-05T06:36:11.124Z,6.90
2024-01-05T06:38:37.760Z,8.75
2024-01-05T06:41:04.337Z,5.40
2024-01-05T06:43:30.869Z,5.20
2024-01-05T06:45:57.408Z,3.38
2024-01-05T06:48:24.160Z,3.50
2024-01-05T06:50:51.011Z,6.68
2024-01-05T06:53:17.535Z,4.43
2024-01-05T06:55:44.114Z,4.05
2024-01-05T06:58:10.628Z,3.28
2024-01-05T07:00:39.387Z,5.10
2024-01-05T07:03:06.286Z,6.70
2024-01-05T07:05:33.061Z,5.90
2024-01-05T07:07:59.690Z,5.82
2024-01-05T07:10:26.346Z,5.57
2024-01-05T07:12:53.404Z,5.40
2024-01-05T07:15:20.229Z,7.75
2024-01-05T07:17:46.960Z,7.78
2024-01-05T07:20:13.845Z,4.85
2024-01-05T07:22:40.441Z,3.25
2024-01-05T07:25:10.764Z,2.65
2024-01-05T07:27:38.342Z,3.30
2024-01-05T07:30:05.834Z,1.90
2024-01-05T07:32:32.510Z,2.55
2024-01-05T07:34:59.204Z,3.05
2024-01-05T07:37:25.871Z,4.63
2024-01-05T07:39:52.472Z,2.83
2024-01-05T07:42:19.009Z,4.43
2024-01-05T07:44:45.548Z,4.80
2024-01-05T07:47:12.391Z,2.95
2024-01-05T07:49:39.058Z,3.30
2024-01-05T07:52:05.850Z,4.53
2024-01-05T07:54:32.420Z,3.67
2024-01-05T07:56:59.312Z,7.63
2024-01-05T07:59:25.839Z,7.15
2024-01-05T08:01:53.297Z,6.75
2024-01-05T08:04:20.052Z,9.05
2024-01-05T08:06:49.578Z,4.32
2024-01-05T08:09:16.849Z,3.15
2024-01-05T08:11:43.664Z,4.18
2024-01-05T08:14:10.500Z,1.90
2024-01-05T08:16:37.593Z,3.28
2024-01-05T08:19:04.320Z,1.15
2024-01-05T08:21:31.439Z,1.90
2024-01-05T08:23:58.133Z,3.65
2024-01-05T08:26:24.771Z,6.10
2024-01-05T08:28:51.302Z,6.50
2024-01-05T08:31:19.201Z,5.95
2024-01-05T08:33:46.067Z,11.30
2024-01-05T08:36:13.101Z,13.02
2024-01-05T08:38:39.699Z,10.40
2024-01-05T08:41:06.243Z,11.93
2024-01-05T08:43:34.437Z,14.85
2024-01-05T08:46:02.345Z,15.93
2024-01-05T08:48:29.065Z,17.63
2024-01-05T08:50:55.706Z,12.98
2024-01-05T08:53:22.430Z,13.95
2024-01-05T08:55:48.963Z,11.40
2024-01-05T08:58:15.493Z,10.95
2024-01-05T09:00:42.234Z,12.43
2024-01-05T09:03:09.043Z,10.23
2024-01-05T09:05:35.777Z,10.10
2024-01-05T09:08:02.341Z,7.93
2024-01-05T09:10:28.969Z,7.38
2024-01-05T09:12:55.641Z,7.15
2024-01-05T09:15:24.370Z,7.75
2024-01-05T09:17:51.122Z,8.52
2024-01-05T09:20:17.782Z,7.32
2024-01-05T09:22:44.355Z,8.27
2024-01-05T09:25:11.011Z,11.48
2024-01-05T09:27:37.894Z,7.85
2024-01-05T09:30:04.887Z,9.48
2024-01-05T09:32:31.975Z,5.70
2024-01-05T09:34:58.790Z,8.57
2024-01-05T09:37:25.331Z,6.53
2024-01-05T09:39:51.856Z,6.28
2024-01-05T09:42:18.477Z,7.78
2024-01-05T09:44:47.605Z,6.32
2024-01-05T09:47:15.086Z,6.70
2024-01-05T09:49:46.252Z,7.43
2024-01-05T09:54:40.154Z,4.32
2024-01-05T09:57:07.034Z,5.38
2024-01-05T09:59:39.534Z,6.28
2024-01-05T10:02:09.284Z,6.07
2024-01-05T10:04:35.990Z,3.50
2024-01-05T10:07:02.891Z,3.88
2024-01-05T10:09:30.650Z,3.55
2024-01-05T10:11:58.137Z,7.53
2024-01-05T10:14:28.688Z,5.57
2024-01-05T10:17:17.275Z,7.65
2024-01-05T10:19:44.418Z,9.27
2024-01-05T10:22:12.104Z,9.40
2024-01-05T10:24:38.918Z,4.65
2024-01-05T10:27:15.124Z,4.30
2024-01-05T10:29:46.557Z,4.50
2024-01-05T10:32:14.398Z,7.47
2024-01-05T10:34:42.303Z,8.68
2024-01-05T10:37:09.314Z,11.23
2024-01-05T10:39:36.606Z,9.57
2024-01-05T10:42:20.088Z,7.53
2024-01-05T10:44:47.211Z,7.35
2024-01-05T10:47:15.968Z,8.40
2024-01-05T10:49:50.638Z,9.45
2024-01-05T10:52:21.921Z,10.23
2024-01-05T10:54:49.147Z,8.70
2024-01-05T10:57:16.378Z,7.97
2024-01-05T10:59:46.762Z,8.50
2024-01-05T11:02:23.830Z,10.05
2024-01-05T11:05:12.434Z,7.25
2024-01-05T11:07:39.749Z,8.73
2024-01-05T11:10:12.504Z,6.68
2024-01-05T11:12:57.086Z,9.48
2024-01-05T11:15:23.988Z,8.45
2024-01-05T11:18:01.945Z,8.40
2024-01-05T11:20:47.379Z,6.55
2024-01-05T11:23:15.342Z,7.10
2024-01-05T11:25:42.076Z,7.22
2024-01-05T11:28:08.708Z,8.02
2024-01-05T11:30:39.184Z,7.88
2024-01-05T11:33:08.108Z,12.98
2024-01-05T11:35:42.462Z,9.82
2024-01-05T11:38:24.786Z,10.65
2024-01-05T11:40:51.344Z,9.15
2024-01-05T11:43:34.772Z,7.75
2024-01-05T11:46:01.361Z,7.43
2024-01-05T11:48:38.523Z,4.07
2024-01-05T11:51:09.362Z,5.45
2024-01-05T11:53:36.327Z,3.75
2024-01-05T11:56:12.092Z,6.95
2024-01-05T11:58:44.436Z,4.97
2024-01-05T12:01:11.961Z,6.13
2024-01-05T12:03:40.021Z,3.17
2024-01-05T12:06:07.973Z,2.67
2024-01-05T12:08:34.972Z,7.18
2024-01-05T12:11:04.168Z,6.60
2024-01-05T12:13:31.878Z,3.78
2024-01-05T12:16:01.914Z,4.28
2024-01-05T12:18:37.544Z,2.75
2024-01-05T12:21:07.837Z,10.10
2024-01-05T12:23:35.540Z,21.02
2024-01-05T12:26:06.719Z,16.80
2024-01-05T12:31:02.050Z,13.63
2024-01-05T12:33:29.568Z,15.05
2024-01-05T12:35:56.719Z,7.82
2024-01-05T12:38:24.369Z,7.65
2024-01-05T12:40:51.358Z,8.23
2024-01-05T12:43:18.459Z,6.43
2024-01-05T12:45:47.495Z,4.43
2024-01-05T12:48:14.475Z,6.57
2024-01-05T12:50:41.559Z,7.25
2024-01-05T12:53:21.027Z,8.20
2024-01-05T12:55:47.760Z,5.25
2024-01-05T12:58:14.332Z,3.50
2024-01-05T13:00:45.792Z,5.00
2024-01-05T13:03:18.908Z,5.35
2024-01-05T13:05:46.237Z,8.45
2024-01-05T13:08:12.809Z,7.30
2024-01-05T13:10:42.016Z,7.70
2024-01-05T13:13:08.740Z,7.22
2024-01-05T13:15:35.623Z,7.10
2024-01-05T13:18:03.256Z,6.88
2024-01-05T13:20:30.201Z,8.13
2024-01-05T13:22:57.333Z,8.13
2024-01-05T13:25:24.723Z,9.80
2024-01-05T13:27:51.416Z,8.68
2024-01-05T13:30:18.236Z,11.65
2024-01-05T13:32:45.600Z,10.30
2024-01-05T13:35:12.702Z,6.22
2024-01-05T13:37:39.333Z,7.78
2024-01-05T13:40:07.200Z,5.68
2024-01-05T13:42:34.007Z,6.03
2024-01-05T13:45:06.087Z,6.13
2024-01-05T13:47:38.274Z,3.70
2024-01-05T13:50:05.149Z,5.40
2024-01-05T13:52:31.751Z,3.47
2024-01-05T13:54:58.556Z,2.28
2024-01-05T13:57:25.196Z,4.90
2024-01-05T13:59:51.964Z,3.63
2024-01-05T14:02:21.494Z,4.05
2024-01-05T14:04:48.839Z,3.50
2024-01-05T14:07:16.077Z,2.80
2024-01-05T14:09:43.665Z,2.00
2024-01-05T14:12:10.648Z,5.10
2024-01-05T14:14:37.325Z,45.88
2024-01-05T14:17:04.372Z,40.95
2024-01-05T14:19:31.168Z,8.15
2024-01-05T14:21:58.928Z,5.57
2024-01-05T14:24:25.660Z,8.02
2024-01-05T14:26:52.283Z,8.98
2024-01-05T14:29:19.610Z,6.25
2024-01-05T14:31:46.271Z,6.72
2024-01-05T14:34:15.605Z,7.75
2024-01-05T14:36:42.336Z,4.78
2024-01-05T14:39:10.800Z,3.45
2024-01-05T14:41:37.745Z,5.30
2024-01-05T14:44:04.629Z,7.35
2024-01-05T14:46:31.248Z,3.80
2024-01-05T14:48:58.635Z,3.88
2024-01-05T14:51:26.183Z,4.95
2024-01-05T14:53:53.005Z,4.03
2024-01-05T14:56:19.739Z,1.88
2024-01-05T14:58:48.695Z,2.40
2024-01-05T15:01:17.296Z,3.17
2024-01-05T15:03:44.249Z,3.33
2024-01-05T15:06:11.317Z,2.75
2024-01-05T15:08:38.548Z,4.53
2024-01-05T15:11:06.061Z,3.00
2024-01-05T15:13:33.881Z,3.80
2024-01-05T15:16:01.201Z,2.22
2024-01-05T15:18:28.174Z,2.83
2024-01-05T15:20:55.245Z,1.77
2024-01-05T15:23:21.898Z,4.40
2024-01-05T15:25:48.617Z,1.52
2024-01-05T15:28:15.517Z,3.28
2024-01-05T15:30:42.229Z,2.50
2024-01-05T15:33:09.031Z,1.55
2024-01-05T15:35:37.073Z,2.78
2024-01-05T15:38:04.378Z,1.08
2024-01-05T15:40:32.023Z,0.77
2024-01-05T15:43:02.592Z,2.30
2024-01-05T15:45:33.023Z,2.15
2024-01-05T15:48:00.878Z,2.15
2024-01-05T15:50:29.068Z,1.10
2024-01-05T15:52:55.683Z,1.08
2024-01-05T15:55:23.542Z,1.45
2024-01-05T15:57:50.384Z,1.30
2024-01-05T16:00:17.080Z,2.35
2024-01-05T16:02:43.699Z,1.88
2024-01-05T16:05:10.663Z,1.05
2024-01-05T16:07:37.425Z,1.65
2024-01-05T16:10:05.336Z,3.92
2024-01-05T16:12:32.110Z,1.30
2024-01-05T16:14:58.647Z,1.52
2024-01-05T16:17:25.209Z,2.45
2024-01-05T16:19:51.820Z,4.30
2024-01-05T16:22:18.473Z,2.75
2024-01-05T16:24:45.023Z,2.58
2024-01-05T16:27:11.718Z,3.55
2024-01-05T16:29:38.291Z,1.90
2024-01-05T16:32:04.928Z,1.15
2024-01-05T16:34:31.583Z,2.58
2024-01-05T16:37:00.110Z,2.58
2024-01-05T16:39:26.853Z,1.50
2024-01-05T16:41:53.386Z,1.98
2024-01-05T16:44:19.962Z,1.48
2024-01-05T16:46:46.472Z,1.30
2024-01-05T16:49:13.271Z,0.90
2024-01-05T16:51:40.244Z,1.55
2024-01-05T16:54:06.880Z,2.67
2024-01-05T16:56:41.116Z,2.28
2024-01-05T16:59:10.565Z,3.22
2024-01-05T17:01:37.116Z,0.80
2024-01-05T17:04:10.250Z,1.70
2024-01-05T17:06:38.326Z,1.52
2024-01-05T17:09:08.121Z,2.97
2024-01-05T17:11:34.660Z,5.70
2024-01-05T17:14:01.221Z,6.68
2024-01-05T17:16:28.706Z,2.88
2024-01-05T17:19:00.594Z,0.90
2024-01-05T17:21:29.435Z,1.33
2024-01-05T17:23:56.261Z,3.40
2024-01-05T17:26:23.467Z,2.83
2024-01-05T17:28:50.566Z,11.20
2024-01-05T17:31:17.274Z,4.25
2024-01-05T17:33:44.686Z,3.38
2024-01-05T17:36:12.099Z,2.45
2024-01-05T17:38:38.720Z,1.98
2024-01-05T17:41:05.270Z,1.40
2024-01-05T17:43:32.080Z,1.73
2024-01-05T17:46:03.525Z,2.15
2024-01-05T17:48:30.187Z,1.17
2024-01-05T17:51:01.255Z,2.75
2024-01-05T17:53:29.049Z,2.95
2024-01-05T17:55:55.651Z,4.82
2024-01-05T17:58:22.182Z,2.63
2024-01-05T18:00:48.834Z,2.20
2024-01-05T18:03:15.919Z,2.00
2024-01-05T18:05:42.492Z,5.80
2024-01-05T18:08:09.166Z,2.97
2024-01-05T18:10:35.823Z,1.58
2024-01-05T18:13:02.326Z,2.25
2024-01-05T18:15:28.915Z,1.95
2024-01-05T18:17:55.539Z,5.00
2024-01-05T18:20:22.564Z,2.22
2024-01-05T18:22:49.077Z,2.42
2024-01-05T18:25:15.691Z,1.83
2024-01-05T18:27:42.266Z,2.38
2024-01-05T18:30:09.374Z,2.95
2024-01-05T18:32:36.083Z,3.30
2024-01-05T18:35:02.757Z,1.85
2024-01-05T18:37:29.408Z,1.83
2024-01-05T18:39:56.066Z,1.77
2024-01-05T18:42:22.646Z,2.90
2024-01-05T18:44:49.226Z,2.15
2024-01-05T18:47:16.118Z,1.40
2024-01-05T18:49:42.922Z,2.42
2024-01-05T18:52:09.736Z,3.00
2024-01-05T18:54:36.289Z,2.78
2024-01-05T18:57:02.951Z,3.35
2024-01-05T18:59:29.622Z,2.58
2024-01-05T19:01:56.364Z,3.13
2024-01-05T19:04:23.206Z,2.10
2024-01-05T19:06:50.027Z,2.88
2024-01-05T19:09:16.636Z,4.35
2024-01-05T19:11:43.460Z,3.45
2024-01-05T19:14:10.102Z,5.18
2024-01-05T19:16:41.441Z,2.60
2024-01-05T19:19:10.940Z,1.90
2024-01-05T19:21:49.803Z,3.17
2024-01-05T19:24:22.381Z,1.20
2024-01-05T19:26:48.947Z,2.42
2024-01-05T19:29:15.492Z,2.85
2024-01-05T19:31:43.261Z,2.15
2024-01-05T19:34:10.270Z,2.17
2024-01-05T19:36:38.012Z,0.85
2024-01-05T19:39:05.456Z,1.35
2024-01-05T19:41:32.079Z,1.25
2024-01-05T19:44:00.268Z,2.53
2024-01-05T19:46:26.803Z,3.20
2024-01-05T19:48:55.835Z,3.70
2024-01-05T19:51:23.569Z,2.28
2024-01-05T19:53:50.211Z,2.13
2024-01-05T19:56:16.961Z,1.58
2024-01-05T19:58:43.494Z,1.63
2024-01-05T20:01:10.175Z,4.15
2024-01-05T20:03:36.857Z,2.50
2024-01-05T20:06:04.706Z,3.75
2024-01-05T20:08:31.455Z,4.30
2024-01-05T20:10:58.817Z,3.15
2024-01-05T20:13:25.402Z,1.50
2024-01-05T20:15:52.098Z,2.70
2024-01-05T20:18:18.939Z,3.28
2024-01-05T20:20:45.644Z,2.42
2024-01-05T20:23:13.083Z,4.25
2024-01-05T20:25:39.656Z,3.72
2024-01-05T20:28:07.608Z,9.00
2024-01-05T20:30:34.343Z,4.90
2024-01-05T20:33:00.947Z,4.78
2024-01-05T20:35:27.694Z,1.98
2024-01-05T20:37:54.523Z,4.00
2024-01-05T20:40:21.179Z,3.42
2024-01-05T20:42:48.301Z,1.80
2024-01-05T20:45:15.119Z,3.15
2024-01-05T20:47:42.332Z,5.53
2024-01-05T20:50:09.086Z,6.57
2024-01-05T20:52:36.048Z,6.53
2024-01-05T20:55:03.065Z,5.70
2024-01-05T20:57:29.806Z,7.40
2024-01-05T20:59:56.450Z,6.70
2024-01-05T21:02:23.012Z,2.65
2024-01-05T21:04:49.845Z,3.45
2024-01-05T21:07:18.012Z,6.68
2024-01-05T21:09:44.763Z,2.92
2024-01-05T21:12:11.458Z,4.60
2024-01-05T21:14:41.152Z,3.45
2024-01-05T21:17:08.224Z,4.30
2024-01-05T21:19:41.279Z,4.47
2024-01-05T21:22:08.214Z,5.05
2024-01-05T21:24:39.049Z,7.25
2024-01-05T21:27:05.646Z,2.65
2024-01-05T21:29:32.298Z,3.15
2024-01-05T21:31:58.914Z,4.40
2024-01-05T21:34:25.561Z,5.05
2024-01-05T21:36:52.204Z,2.83
2024-01-05T21:39:19.046Z,7.55
2024-01-05T21:41:47.907Z,7.93
2024-01-05T21:44:15.017Z,3.05
2024-01-05T21:46:41.651Z,9.30
2024-01-05T21:49:09.908Z,4.50
2024-01-05T21:51:37.234Z,6.05
2024-01-05T21:54:04.237Z,5.13
2024-01-05T21:56:30.901Z,6.60
2024-01-05T21:58:57.816Z,7.35
2024-01-05T22:01:24.454Z,5.60
2024-01-05T22:03:51.214Z,6.20
2024-01-05T22:06:17.909Z,6.07
2024-01-05T22:08:44.604Z,4.20
2024-01-05T22:11:11.107Z,4.32
2024-01-05T22:13:37.649Z,4.88
2024-01-05T22:16:04.319Z,6.65
2024-01-05T22:18:34.384Z,8.05
2024-01-05T22:21:08.813Z,4.93
2024-01-05T22:23:37.539Z,9.23
2024-01-05T22:26:05.601Z,6.90
2024-01-05T22:28:32.149Z,5.05
2024-01-05T22:30:58.727Z,3.83
2024-01-05T22:33:25.421Z,6.95
2024-01-05T22:35:53.971Z,6.03
2024-01-05T22:38:23.456Z,4.68
2024-01-05T22:40:50.861Z,7.53
2024-01-05T22:43:17.421Z,4.60
2024-01-05T22:45:44.091Z,5.38
2024-01-05T22:48:12.093Z,7.10
2024-01-05T22:50:38.720Z,7.53
2024-01-05T22:53:05.241Z,6.10
2024-01-05T22:55:31.750Z,6.13
2024-01-05T22:57:58.279Z,5.03
2024-01-05T23:00:34.411Z,6.20
2024-01-05T23:03:06.492Z,6.30
2024-01-05T23:05:33.222Z,5.88
2024-01-05T23:07:59.862Z,6.45
2024-01-05T23:10:27.350Z,7.53
2024-01-05T23:12:54.807Z,4.32
2024-01-05T23:15:21.624Z,4.70
2024-01-05T23:17:48.226Z,5.78
2024-01-05T23:20:15.043Z,4.63
2024-01-05T23:22:41.722Z,5.70
2024-01-05T23:25:10.371Z,5.40
2024-01-05T23:27:37.605Z,5.40
2024-01-05T23:30:04.949Z,7.80
2024-01-05T23:32:31.699Z,7.80
2024-01-05T23:34:58.417Z,10.10
2024-01-05T23:37:25.401Z,8.95
2024-01-05T23:39:52.057Z,9.13
2024-01-05T23:42:18.745Z,5.55
2024-01-05T23:44:45.383Z,7.63
2024-01-05T23:47:12.033Z,5.95
2024-01-05T23:49:38.706Z,13.20
2024-01-05T23:52:05.545Z,7.55
2024-01-05T23:54:32.227Z,8.85
2024-01-05T23:56:58.796Z,11.23
2024-01-05T23:59:25.356Z,10.88
